createdAt,value
2022-12-08T00:00:53.756Z,100196.13
2022-12-08T00:01:58.904Z,100192.55
2022-12-08T00:03:04.146Z,100191.36
2022-12-08T00:04:08.817Z,100187.09
2022-12-08T00:05:13.050Z,100193.19
2022-12-08T00:06:17.344Z,100194.04
2022-12-08T00:07:21.601Z,100195.64
2022-12-08T00:08:26.013Z,100193.78
2022-12-08T00:09:39.256Z,100194.38
2022-12-08T00:10:51.300Z,100196.72
2022-12-08T00:11:55.516Z,100192.3
2022-12-08T00:13:00.026Z,100191.78
2022-12-08T00:14:04.275Z,100195.12
2022-12-08T00:15:08.578Z,100196.8
2022-12-08T00:16:12.911Z,100195.57
2022-12-08T00:17:17.249Z,100200.48
2022-12-08T00:18:21.463Z,100195.05
2022-12-08T00:19:25.689Z,100198.59
2022-12-08T00:20:29.912Z,100199.59
2022-12-08T00:21:34.129Z,100202.34
2022-12-08T00:22:38.361Z,100205.62
2022-12-08T00:23:42.568Z,100204.69
2022-12-08T00:24:46.816Z,100201.16
2022-12-08T00:25:51.086Z,100201.67
2022-12-08T00:26:55.315Z,100204.99
2022-12-08T00:27:59.525Z,100197.03
2022-12-08T00:29:03.757Z,100199.98
2022-12-08T00:30:07.969Z,100203.92
2022-12-08T00:31:12.196Z,100204
2022-12-08T00:32:19.327Z,100213.11
2022-12-08T00:33:23.725Z,100206.75
2022-12-08T00:34:27.952Z,100211.28
2022-12-08T00:35:32.177Z,100204.92
2022-12-08T00:36:36.386Z,100212.44
2022-12-08T00:37:40.618Z,100208.83
2022-12-08T00:38:44.831Z,100213.52
2022-12-08T00:39:49.074Z,100207.67
2022-12-08T00:40:53.294Z,100209.5
2022-12-08T00:41:57.619Z,100208.42
2022-12-08T00:43:01.880Z,100212.77
2022-12-08T00:44:06.112Z,100212.1
2022-12-08T00:45:10.347Z,100215.3
2022-12-08T00:46:14.742Z,100214.04
2022-12-08T00:47:25.479Z,100210.09
2022-12-08T00:48:29.706Z,100211.44
2022-12-08T00:49:33.932Z,100207.61
2022-12-08T00:50:38.184Z,100213.03
2022-12-08T00:51:42.400Z,100213.45
2022-12-08T00:52:46.606Z,100216.05
2022-12-08T00:53:50.835Z,100220.39
2022-12-08T00:54:55.053Z,100222.41
2022-12-08T00:55:59.300Z,100228.51
2022-12-08T00:57:03.518Z,100231.38
2022-12-08T00:58:07.743Z,100230.03
2022-12-08T00:59:11.979Z,100236.87
2022-12-08T01:00:16.190Z,100233.79
2022-12-08T01:01:20.581Z,100236.47
2022-12-08T01:02:24.949Z,100237.8
2022-12-08T01:03:29.343Z,100240.56
2022-12-08T01:04:33.687Z,100247.92
2022-12-08T01:05:37.900Z,100244.91
2022-12-08T01:06:42.146Z,100246.02
2022-12-08T01:07:46.521Z,100244.69
2022-12-08T01:08:50.828Z,100247.92
2022-12-08T01:09:55.071Z,100254.28
2022-12-08T01:10:59.316Z,100246.91
2022-12-08T01:12:03.549Z,100243.83
2022-12-08T01:13:07.753Z,100248.25
2022-12-08T01:14:11.984Z,100248.7
2022-12-08T01:15:16.202Z,100247.7
2022-12-08T01:16:20.524Z,100251.86
2022-12-08T01:17:24.889Z,100250.78
2022-12-08T01:18:29.139Z,100250.7
2022-12-08T01:19:33.366Z,100243.49
2022-12-08T01:20:37.576Z,100251.7
2022-12-08T01:21:41.825Z,100249.92
2022-12-08T01:22:46.041Z,100257.14
2022-12-08T01:23:50.281Z,100254.95
2022-12-08T01:24:54.508Z,100254.53
2022-12-08T01:25:58.728Z,100259.73
2022-12-08T01:27:02.964Z,100257.22
2022-12-08T01:28:07.204Z,100256.8
2022-12-08T01:29:11.407Z,100261.23
2022-12-08T01:30:15.635Z,100250.93
2022-12-08T01:31:20.136Z,100258.63
2022-12-08T01:32:24.655Z,100253.38
2022-12-08T01:33:28.892Z,100250.03
2022-12-08T01:34:33.139Z,100249.7
2022-12-08T01:35:38.378Z,100250.03
2022-12-08T01:36:42.583Z,100252.7
2022-12-08T01:37:46.863Z,100244.34
2022-12-08T01:38:51.060Z,100248.84
2022-12-08T01:39:55.280Z,100254.97
2022-12-08T01:41:01.995Z,100250.03
2022-12-08T01:42:06.222Z,100257.06
2022-12-08T01:43:10.444Z,100249.52
2022-12-08T01:44:14.669Z,100253.79
2022-12-08T01:45:18.917Z,100250.44
2022-12-08T01:46:23.380Z,100252.63
2022-12-08T01:47:27.762Z,100251.52
2022-12-08T01:48:32.123Z,100253.12
2022-12-08T01:49:36.347Z,100254.13
2022-12-08T01:50:40.585Z,100255.8
2022-12-08T01:51:44.810Z,100250.52
2022-12-08T01:52:49.022Z,100250.44
2022-12-08T01:53:53.246Z,100246.42
2022-12-08T01:54:57.485Z,100254.12
2022-12-08T01:56:01.756Z,100248.77
2022-12-08T01:57:06.001Z,100252.78
2022-12-08T01:58:10.241Z,100248.36
2022-12-08T01:59:14.481Z,100254.37
2022-12-08T02:00:18.738Z,100238.47
2022-12-08T02:01:23.180Z,100246.94
2022-12-08T02:02:27.602Z,100242.4
2022-12-08T02:03:31.997Z,100246.75
2022-12-08T02:04:36.239Z,100242.92
2022-12-08T02:05:40.493Z,100246.01
2022-12-08T02:06:44.723Z,100243
2022-12-08T02:07:49.097Z,100242.74
2022-12-08T02:08:53.411Z,100242
2022-12-08T02:09:57.624Z,100241.48
2022-12-08T02:11:01.843Z,100240.73
2022-12-08T02:12:06.068Z,100240.66
2022-12-08T02:13:10.308Z,100243.59
2022-12-08T02:14:14.543Z,100247.61
2022-12-08T02:15:18.778Z,100244.82
2022-12-08T02:16:23.212Z,100248.61
2022-12-08T02:17:27.581Z,100249.02
2022-12-08T02:18:31.836Z,100249.94
2022-12-08T02:19:36.055Z,100257.8
2022-12-08T02:20:40.347Z,100252.7
2022-12-08T02:21:44.589Z,100258.72
2022-12-08T02:22:48.807Z,100257.63
2022-12-08T02:23:53.028Z,100264.66
2022-12-08T02:24:57.255Z,100262.8
2022-12-08T02:26:01.498Z,100262.12
2022-12-08T02:27:05.806Z,100262.98
2022-12-08T02:28:10.011Z,100263.65
2022-12-08T02:29:14.246Z,100262.31
2022-12-08T02:30:18.512Z,100258.45
2022-12-08T02:31:22.899Z,100250.34
2022-12-08T02:32:27.290Z,100262.12
2022-12-08T02:33:31.618Z,100260.72
2022-12-08T02:34:35.840Z,100262.47
2022-12-08T02:35:40.086Z,100259.7
2022-12-08T02:36:44.286Z,100255.44
2022-12-08T02:37:48.503Z,100258.11
2022-12-08T02:38:52.758Z,100252.27
2022-12-08T02:39:56.997Z,100257.37
2022-12-08T02:41:01.234Z,100262.31
2022-12-08T02:42:05.466Z,100256.38
2022-12-08T02:43:09.672Z,100258.79
2022-12-08T02:44:13.890Z,100253.95
2022-12-08T02:45:18.115Z,100255.95
2022-12-08T02:46:22.458Z,100264.06
2022-12-08T02:47:26.792Z,100256.63
2022-12-08T02:48:31.045Z,100260.12
2022-12-08T02:49:35.301Z,100261.8
2022-12-08T02:50:39.569Z,100254.55
2022-12-08T02:51:43.826Z,100255.55
2022-12-08T02:52:48.071Z,100258.56
2022-12-08T02:53:52.293Z,100262.05
2022-12-08T02:54:56.512Z,100264.91
2022-12-08T02:56:00.747Z,100259.3
2022-12-08T02:57:04.989Z,100258.63
2022-12-08T02:58:09.209Z,100255.21
2022-12-08T02:59:13.485Z,100254.54
2022-12-08T03:00:17.856Z,100252.61
2022-12-08T03:01:22.248Z,100253.69
2022-12-08T03:02:26.710Z,100251.61
2022-12-08T03:03:31.011Z,100252.42
2022-12-08T03:04:35.276Z,100243.06
2022-12-08T03:05:39.483Z,100244.4
2022-12-08T03:06:43.702Z,100240.91
2022-12-08T03:07:48.035Z,100242.31
2022-12-08T03:08:52.379Z,100232.88
2022-12-08T03:09:56.591Z,100235.89
2022-12-08T03:11:00.811Z,100236.55
2022-12-08T03:12:05.101Z,100233.28
2022-12-08T03:13:09.316Z,100236.3
2022-12-08T03:14:13.527Z,100232.95
2022-12-08T03:15:17.733Z,100232.88
2022-12-08T03:16:22.228Z,100227.19
2022-12-08T03:17:26.635Z,100224.44
2022-12-08T03:18:30.870Z,100228.52
2022-12-08T03:19:35.100Z,100230.67
2022-12-08T03:20:39.368Z,100224.33
2022-12-08T03:21:43.608Z,100221.23
2022-12-08T03:22:47.829Z,100223.77
2022-12-08T03:23:52.060Z,100220.91
2022-12-08T03:24:56.299Z,100221.58
2022-12-08T03:26:00.542Z,100222.58
2022-12-08T03:27:04.785Z,100218.41
2022-12-08T03:28:09.013Z,100220.08
2022-12-08T03:29:13.240Z,100211.72
2022-12-08T03:30:17.462Z,100214.21
2022-12-08T03:31:21.824Z,100213.13
2022-12-08T03:32:26.229Z,100217.41
2022-12-08T03:33:30.445Z,100207.59
2022-12-08T03:34:34.677Z,100210.87
2022-12-08T03:35:38.910Z,100211.87
2022-12-08T03:36:43.181Z,100206.18
2022-12-08T03:37:47.464Z,100213.55
2022-12-08T03:38:51.685Z,100217.97
2022-12-08T03:39:55.900Z,100214.2
2022-12-08T03:41:00.112Z,100209.27
2022-12-08T03:42:04.328Z,100214.8
2022-12-08T03:43:08.558Z,100214.2
2022-12-08T03:44:12.762Z,100215.88
2022-12-08T03:45:16.985Z,100214.8
2022-12-08T03:47:22.918Z,100217.13
2022-12-08T03:48:27.194Z,100212.12
2022-12-08T03:49:31.405Z,100212.45
2022-12-08T03:50:35.613Z,100215.38
2022-12-08T03:51:39.876Z,100214.45
2022-12-08T03:52:44.097Z,100213.11
2022-12-08T03:53:48.317Z,100220.14
2022-12-08T03:54:52.537Z,100221.66
2022-12-08T03:55:56.748Z,100216.72
2022-12-08T03:57:00.984Z,100216.98
2022-12-08T03:58:05.210Z,100217.54
2022-12-08T03:59:09.421Z,100216.65
2022-12-08T04:00:13.651Z,100215.53
2022-12-08T04:01:17.909Z,100216.87
2022-12-08T04:02:22.504Z,100217.88
2022-12-08T04:03:27.125Z,100221.48
2022-12-08T04:04:31.408Z,100220.55
2022-12-08T04:05:35.630Z,100214.2
2022-12-08T04:06:39.855Z,100218.06
2022-12-08T04:07:44.226Z,100215.64
2022-12-08T04:08:48.602Z,100219.21
2022-12-08T04:09:53.874Z,100207.77
2022-12-08T04:10:58.132Z,100213.38
2022-12-08T04:12:02.389Z,100214.38
2022-12-08T04:13:06.638Z,100216.46
2022-12-08T04:14:10.883Z,100213.78
2022-12-08T04:15:15.331Z,100214.2
2022-12-08T04:16:19.774Z,100211.7
2022-12-08T04:17:24.251Z,100219.14
2022-12-08T04:18:28.470Z,100212.86
2022-12-08T04:19:32.777Z,100208.84
2022-12-08T04:20:37.011Z,100206.69
2022-12-08T04:21:41.256Z,100205.75
2022-12-08T04:22:45.732Z,100201.48
2022-12-08T04:23:50.382Z,100205.95
2022-12-08T04:24:58.193Z,100208.18
2022-12-08T04:26:02.413Z,100202.94
2022-12-08T04:27:06.635Z,100197.98
2022-12-08T04:28:10.876Z,100199.91
2022-12-08T04:29:15.111Z,100203.48
2022-12-08T04:30:19.323Z,100202.26
2022-12-08T04:31:23.927Z,100202.48
2022-12-08T04:32:28.249Z,100199.91
2022-12-08T04:33:32.446Z,100196.47
2022-12-08T04:34:36.659Z,100194.05
2022-12-08T04:35:40.928Z,100203.34
2022-12-08T04:36:45.158Z,100196.91
2022-12-08T04:37:49.382Z,100203.48
2022-12-08T04:38:53.593Z,100200.06
2022-12-08T04:39:57.822Z,100195.39
2022-12-08T04:41:02.083Z,100191.97
2022-12-08T04:42:06.324Z,100192.23
2022-12-08T04:43:10.548Z,100194.38
2022-12-08T04:44:14.761Z,100198.06
2022-12-08T04:45:18.996Z,100196.58
2022-12-08T04:46:23.369Z,100188.63
2022-12-08T04:47:27.746Z,100193.45
2022-12-08T04:48:31.967Z,100190.22
2022-12-08T04:49:36.233Z,100197.06
2022-12-08T04:50:40.439Z,100190.7
2022-12-08T04:51:44.680Z,100194.31
2022-12-08T04:52:48.902Z,100194.58
2022-12-08T04:53:53.156Z,100195.58
2022-12-08T04:54:57.403Z,100194.8
2022-12-08T04:56:01.658Z,100196.73
2022-12-08T04:57:05.891Z,100195.32
2022-12-08T04:58:10.174Z,100195.58
2022-12-08T04:59:14.397Z,100200.82
2022-12-08T05:00:18.594Z,100202.59
2022-12-08T05:01:22.984Z,100198
2022-12-08T05:02:27.434Z,100194.06
2022-12-08T05:03:31.807Z,100198.91
2022-12-08T05:04:36.022Z,100197.83
2022-12-08T05:05:40.261Z,100196.81
2022-12-08T05:06:44.485Z,100197
2022-12-08T05:07:48.852Z,100202.84
2022-12-08T05:08:53.244Z,100199.16
2022-12-08T05:09:57.456Z,100195.97
2022-12-08T05:11:01.733Z,100192.22
2022-12-08T05:12:05.963Z,100185.71
2022-12-08T05:13:11.226Z,100190.13
2022-12-08T05:14:15.440Z,100190.53
2022-12-08T05:15:19.717Z,100187.44
2022-12-08T05:16:24.141Z,100181.64
2022-12-08T05:17:28.557Z,100177.67
2022-12-08T05:18:32.791Z,100181.15
2022-12-08T05:19:37.005Z,100180.72
2022-12-08T05:20:41.237Z,100176.59
2022-12-08T05:21:45.490Z,100183
2022-12-08T05:22:49.719Z,100186.33
2022-12-08T05:23:53.968Z,100183.11
2022-12-08T05:24:58.213Z,100181.17
2022-12-08T05:26:02.469Z,100182.99
2022-12-08T05:27:06.767Z,100184.72
2022-12-08T05:28:42.555Z,100184.89
2022-12-08T05:29:47.615Z,100178.61
2022-12-08T05:30:51.849Z,100169.03
2022-12-08T05:31:56.473Z,100179.41
2022-12-08T05:33:00.857Z,100170.27
2022-12-08T05:34:05.085Z,100169.75
2022-12-08T05:35:09.302Z,100176.68
2022-12-08T05:36:13.514Z,100177.41
2022-12-08T05:37:17.754Z,100175.23
2022-12-08T05:38:21.984Z,100170.08
2022-12-08T05:39:26.230Z,100173.02
2022-12-08T05:40:30.470Z,100174.69
2022-12-08T05:41:34.664Z,100170.98
2022-12-08T05:42:38.885Z,100175.14
2022-12-08T05:43:43.170Z,100173.31
2022-12-08T05:44:47.640Z,100178.48
2022-12-08T05:45:51.982Z,100176.93
2022-12-08T05:46:56.341Z,100178.84
2022-12-08T05:48:00.574Z,100176.08
2022-12-08T05:49:04.828Z,100168.88
2022-12-08T05:50:09.045Z,100180.27
2022-12-08T05:51:13.254Z,100174.38
2022-12-08T05:52:17.488Z,100177.91
2022-12-08T05:53:21.732Z,100179.26
2022-12-08T05:54:25.958Z,100178.16
2022-12-08T05:55:30.179Z,100187.08
2022-12-08T05:56:34.396Z,100178.38
2022-12-08T05:57:38.639Z,100171.78
2022-12-08T05:58:42.893Z,100178.29
2022-12-08T05:59:47.118Z,100171.5
2022-12-08T06:00:51.347Z,100176.64
2022-12-08T06:01:55.915Z,100171.05
2022-12-08T06:03:00.676Z,100168.23
2022-12-08T06:04:05.247Z,100171.31
2022-12-08T06:05:09.536Z,100174.76
2022-12-08T06:06:13.796Z,100171.61
2022-12-08T06:07:18.016Z,100172.89
2022-12-08T06:08:22.429Z,100170.22
2022-12-08T06:09:26.874Z,100173.83
2022-12-08T06:10:31.169Z,100170.07
2022-12-08T06:11:35.435Z,100176.19
2022-12-08T06:12:39.684Z,100173.89
2022-12-08T06:13:43.932Z,100175.47
2022-12-08T06:14:48.145Z,100177.27
2022-12-08T06:15:52.386Z,100171.73
2022-12-08T06:16:56.704Z,100180.52
2022-12-08T06:18:01.088Z,100179.78
2022-12-08T06:19:05.329Z,100179.64
2022-12-08T06:20:09.581Z,100175.55
2022-12-08T06:21:13.826Z,100177.91
2022-12-08T06:22:18.055Z,100175.05
2022-12-08T06:23:22.294Z,100182.42
2022-12-08T06:24:26.531Z,100180.42
2022-12-08T06:25:30.752Z,100179.42
2022-12-08T06:26:34.990Z,100182.21
2022-12-08T06:27:39.232Z,100181.11
2022-12-08T06:28:43.505Z,100181.29
2022-12-08T06:29:47.723Z,100171.66
2022-12-08T06:30:51.939Z,100175.68
2022-12-08T06:31:56.402Z,100177.95
2022-12-08T06:33:00.798Z,100181.38
2022-12-08T06:34:05.025Z,100175.52
2022-12-08T06:35:09.281Z,100173.66
2022-12-08T06:36:13.499Z,100169.22
2022-12-08T06:37:17.730Z,100171.95
2022-12-08T06:38:21.933Z,100169.59
2022-12-08T06:39:26.137Z,100172
2022-12-08T06:40:30.370Z,100171.3
2022-12-08T06:41:35.604Z,100172.89
2022-12-08T06:42:39.831Z,100172.22
2022-12-08T06:43:44.070Z,100168.34
2022-12-08T06:44:48.317Z,100170.75
2022-12-08T06:45:52.657Z,100172.5
2022-12-08T06:46:57.094Z,100174.85
2022-12-08T06:48:01.311Z,100174.03
2022-12-08T06:49:05.572Z,100176.3
2022-12-08T06:50:09.799Z,100175.45
2022-12-08T06:51:14.033Z,100175.23
2022-12-08T06:52:18.507Z,100173.56
2022-12-08T06:53:22.755Z,100174.12
2022-12-08T06:54:26.976Z,100174.73
2022-12-08T06:56:01.197Z,100166.21
2022-12-08T06:57:05.418Z,100168.12
2022-12-08T06:58:09.623Z,100168.72
2022-12-08T06:59:13.843Z,100171.66
2022-12-08T07:00:18.059Z,100164.3
2022-12-08T07:01:22.574Z,100166.66
2022-12-08T07:02:27.140Z,100165.5
2022-12-08T07:03:31.472Z,100172.36
2022-12-08T07:04:35.708Z,100169.2
2022-12-08T07:05:40.087Z,100170.09
2022-12-08T07:06:44.309Z,100163.18
2022-12-08T07:07:48.678Z,100167.77
2022-12-08T07:08:53.093Z,100170.11
2022-12-08T07:09:57.322Z,100169.04
2022-12-08T07:11:01.566Z,100164.69
2022-12-08T07:12:05.826Z,100165.28
2022-12-08T07:13:10.461Z,100169.16
2022-12-08T07:14:14.723Z,100168.83
2022-12-08T07:15:18.923Z,100166.71
2022-12-08T07:16:23.285Z,100172.18
2022-12-08T07:17:27.626Z,100172
2022-12-08T07:18:31.881Z,100176.62
2022-12-08T07:19:36.146Z,100175.87
2022-12-08T07:20:40.359Z,100170.27
2022-12-08T07:21:45.579Z,100165.91
2022-12-08T07:22:49.795Z,100159.97
2022-12-08T07:23:58.901Z,100172.55
2022-12-08T07:25:03.172Z,100169.02
2022-12-08T07:26:07.441Z,100158.56
2022-12-08T07:27:11.714Z,100160.5
2022-12-08T07:28:15.950Z,100163.17
2022-12-08T07:29:26.896Z,100165.52
2022-12-08T07:30:31.469Z,100163.31
2022-12-08T07:31:35.815Z,100159.2
2022-12-08T07:32:40.032Z,100158.52
2022-12-08T07:33:44.280Z,100156.64
2022-12-08T07:34:48.514Z,100151.5
2022-12-08T07:35:52.750Z,100153.7
2022-12-08T07:36:57.031Z,100149.04
2022-12-08T07:38:01.237Z,100149.52
2022-12-08T07:39:08.494Z,100150.22
2022-12-08T07:40:12.706Z,100150.97
2022-12-08T07:41:16.898Z,100152.22
2022-12-08T07:42:21.176Z,100146.67
2022-12-08T07:43:25.413Z,100150.53
2022-12-08T07:44:29.618Z,100153.21
2022-12-08T07:45:33.828Z,100152.55
2022-12-08T07:46:38.178Z,100148.13
2022-12-08T07:47:42.549Z,100146.2
2022-12-08T07:48:46.777Z,100151.7
2022-12-08T07:49:51.055Z,100149.02
2022-12-08T07:50:55.271Z,100140.42
2022-12-08T07:51:59.483Z,100147.28
2022-12-08T07:53:03.722Z,100143.53
2022-12-08T07:54:07.943Z,100149.58
2022-12-08T07:55:12.149Z,100147.98
2022-12-08T07:56:16.371Z,100138.81
2022-12-08T07:57:20.603Z,100140.23
2022-12-08T07:58:24.885Z,100138.64
2022-12-08T07:59:29.105Z,100132.73
2022-12-08T08:00:33.427Z,100141.87
2022-12-08T08:01:38.105Z,100139.13
2022-12-08T08:02:42.828Z,100137.05
2022-12-08T08:03:47.177Z,100132.85
2022-12-08T08:04:54.022Z,100139.82
2022-12-08T08:05:58.430Z,100139.57
2022-12-08T08:07:02.676Z,100135.41
2022-12-08T08:08:07.035Z,100132.97
2022-12-08T08:09:11.377Z,100137.58
2022-12-08T08:10:15.614Z,100129.33
2022-12-08T08:11:22.618Z,100135.25
2022-12-08T08:12:34.527Z,100133.77
2022-12-08T08:13:38.753Z,100129.09
2022-12-08T08:14:42.982Z,100129.25
2022-12-08T08:15:47.500Z,100134.27
2022-12-08T08:16:52.477Z,100130.94
2022-12-08T08:17:56.868Z,100134.63
2022-12-08T08:19:01.094Z,100131.72
2022-12-08T08:20:05.976Z,100133.66
2022-12-08T08:21:46.253Z,100131.73
2022-12-08T08:22:50.745Z,100135.5
2022-12-08T08:23:55.014Z,100140.27
2022-12-08T08:24:59.235Z,100125.31
2022-12-08T08:26:03.470Z,100131.23
2022-12-08T08:27:07.709Z,100138.13
2022-12-08T08:28:11.943Z,100142.73
2022-12-08T08:29:16.160Z,100134.86
2022-12-08T08:30:22.109Z,100145.34
2022-12-08T08:31:26.571Z,100133.86
2022-12-08T08:32:30.958Z,100130.77
2022-12-08T08:33:35.181Z,100136.54
2022-12-08T08:34:39.479Z,100136.39
2022-12-08T08:35:43.677Z,100143.42
2022-12-08T08:36:48.036Z,100140.48
2022-12-08T08:37:52.351Z,100136.05
2022-12-08T08:38:56.591Z,100141
2022-12-08T08:40:02.178Z,100144.9
2022-12-08T08:41:07.252Z,100146.15
2022-12-08T08:42:11.493Z,100145.37
2022-12-08T08:43:15.736Z,100144.42
2022-12-08T08:44:19.948Z,100143.2
2022-12-08T08:45:24.472Z,100146.09
2022-12-08T08:46:28.827Z,100153.91
2022-12-08T08:47:33.201Z,100150.78
2022-12-08T08:48:37.430Z,100145.8
2022-12-08T08:49:41.673Z,100150.13
2022-12-08T08:50:45.903Z,100157.91
2022-12-08T08:51:50.270Z,100151.61
2022-12-08T08:52:54.509Z,100157.59
2022-12-08T08:53:59.066Z,100154.83
2022-12-08T08:55:03.309Z,100145.32
2022-12-08T08:56:07.636Z,100152.16
2022-12-08T08:57:11.880Z,100153.39
2022-12-08T08:58:16.089Z,100151.31
2022-12-08T08:59:20.367Z,100155.33
2022-12-08T09:00:24.619Z,100155.67
2022-12-08T09:01:29.242Z,100152.78
2022-12-08T09:02:33.585Z,100148.59
2022-12-08T09:03:37.824Z,100141.55
2022-12-08T09:04:42.245Z,100147.19
2022-12-08T09:05:46.821Z,100144.94
2022-12-08T09:06:51.265Z,100135.75
2022-12-08T09:07:55.689Z,100151.17
2022-12-08T09:09:00.021Z,100135.77
2022-12-08T09:10:05.091Z,100145.3
2022-12-08T09:11:09.788Z,100141.96
2022-12-08T09:12:14.010Z,100148.45
2022-12-08T09:13:18.264Z,100136.63
2022-12-08T09:14:22.512Z,100139.57
2022-12-08T09:15:26.747Z,100145.12
2022-12-08T09:16:31.182Z,100142.78
2022-12-08T09:17:40.732Z,100131.89
2022-12-08T09:18:44.947Z,100131.48
2022-12-08T09:19:49.175Z,100131.23
2022-12-08T09:20:53.403Z,100138.13
2022-12-08T09:21:57.653Z,100134.26
2022-12-08T09:23:01.848Z,100139.73
2022-12-08T09:24:06.127Z,100126.56
2022-12-08T09:25:10.357Z,100134.8
2022-12-08T09:26:14.675Z,100127.44
2022-12-08T09:27:18.875Z,100131.31
2022-12-08T09:28:23.112Z,100127.3
2022-12-08T09:29:36.125Z,100131.8
2022-12-08T09:30:40.673Z,100129.47
2022-12-08T09:31:45.113Z,100135.42
2022-12-08T09:32:49.409Z,100125.87
2022-12-08T09:33:53.743Z,100123.79
2022-12-08T09:34:57.977Z,100123.05
2022-12-08T09:36:02.185Z,100122.3
2022-12-08T09:37:06.442Z,100121.97
2022-12-08T09:38:10.911Z,100119.86
2022-12-08T09:39:15.178Z,100119.45
2022-12-08T09:40:19.407Z,100118.19
2022-12-08T09:41:23.654Z,100121.87
2022-12-08T09:42:27.905Z,100120.98
2022-12-08T09:43:32.179Z,100115.1
2022-12-08T09:44:36.383Z,100118.96
2022-12-08T09:45:40.615Z,100120.18
2022-12-08T09:46:45.061Z,100118.75
2022-12-08T09:47:49.487Z,100115.3
2022-12-08T09:48:53.715Z,100120.03
2022-12-08T09:49:57.960Z,100112.36
2022-12-08T09:51:02.184Z,100116.16
2022-12-08T09:52:06.436Z,100117.72
2022-12-08T09:53:10.683Z,100110.39
2022-12-08T09:54:15.136Z,100108.16
2022-12-08T09:55:19.546Z,100107.91
2022-12-08T09:56:23.756Z,100116.02
2022-12-08T09:57:28.016Z,100113.01
2022-12-08T09:58:32.269Z,100111.59
2022-12-08T09:59:36.507Z,100109.39
2022-12-08T10:00:40.734Z,100107.23
2022-12-08T10:01:45.093Z,100101.95
2022-12-08T10:02:49.470Z,100096.27
2022-12-08T10:03:53.705Z,100102.8
2022-12-08T10:04:58.072Z,100104
2022-12-08T10:06:02.570Z,100105.53
2022-12-08T10:07:06.790Z,100101.92
2022-12-08T10:08:11.445Z,100101.75
2022-12-08T10:09:22.903Z,100103.11
2022-12-08T10:10:27.307Z,100099.28
2022-12-08T10:11:31.577Z,100106.48
2022-12-08T10:12:35.801Z,100101.39
2022-12-08T10:13:40.016Z,100094.03
2022-12-08T10:14:44.253Z,100092.03
2022-12-08T10:15:48.640Z,100102.2
2022-12-08T10:16:53.250Z,100095.06
2022-12-08T10:17:57.613Z,100099.77
2022-12-08T10:19:01.835Z,100098.02
2022-12-08T10:20:07.131Z,100093.33
2022-12-08T10:21:11.678Z,100095.34
2022-12-08T10:22:16.185Z,100100.46
2022-12-08T10:23:20.400Z,100098.13
2022-12-08T10:24:24.620Z,100102.75
2022-12-08T10:25:28.840Z,100091.37
2022-12-08T10:26:33.077Z,100096.92
2022-12-08T10:27:37.316Z,100095.25
2022-12-08T10:28:46.055Z,100091.05
2022-12-08T10:29:50.287Z,100097.95
2022-12-08T10:30:54.703Z,100099.89
2022-12-08T10:31:59.250Z,100097.77
2022-12-08T10:33:03.673Z,100098.89
2022-12-08T10:34:07.879Z,100097.82
2022-12-08T10:35:12.197Z,100090.02
2022-12-08T10:36:16.500Z,100103.52
2022-12-08T10:37:20.749Z,100100.92
2022-12-08T10:38:25.020Z,100097.58
2022-12-08T10:39:31.483Z,100099.52
2022-12-08T10:40:43.927Z,100100.09
2022-12-08T10:41:49.689Z,100095.41
2022-12-08T10:42:54.160Z,100099.09
2022-12-08T10:43:58.443Z,100094.26
2022-12-08T10:45:02.690Z,100100.03
2022-12-08T10:46:07.128Z,100098.88
2022-12-08T10:47:11.556Z,100097.34
2022-12-08T10:48:16.019Z,100096.69
2022-12-08T10:49:20.283Z,100097.61
2022-12-08T10:50:24.504Z,100088.98
2022-12-08T10:51:28.774Z,100093.67
2022-12-08T10:52:33.325Z,100087.66
2022-12-08T10:53:37.582Z,100087.05
2022-12-08T10:54:41.858Z,100086.64
2022-12-08T10:55:46.062Z,100088.66
2022-12-08T10:56:50.305Z,100083.49
2022-12-08T10:57:54.551Z,100089.27
2022-12-08T10:58:58.809Z,100088.99
2022-12-08T11:00:04.657Z,100087.89
2022-12-08T11:01:17.223Z,100087.86
2022-12-08T11:02:21.975Z,100080.94
2022-12-08T11:03:26.415Z,100088.92
2022-12-08T11:04:30.661Z,100081.5
2022-12-08T11:05:34.897Z,100085.36
2022-12-08T11:06:39.280Z,100086.58
2022-12-08T11:07:43.683Z,100087.78
2022-12-08T11:08:48.008Z,100090.77
2022-12-08T11:09:52.246Z,100085.16
2022-12-08T11:10:56.543Z,100080.81
2022-12-08T11:12:00.777Z,100081.08
2022-12-08T11:13:05.030Z,100079.08
2022-12-08T11:14:09.297Z,100078.97
2022-12-08T11:15:13.527Z,100076.94
2022-12-08T11:16:18.067Z,100078.56
2022-12-08T11:17:22.471Z,100079.98
2022-12-08T11:18:26.714Z,100079.52
2022-12-08T11:19:30.940Z,100076.56
2022-12-08T11:20:35.192Z,100078.31
2022-12-08T11:21:39.447Z,100079.33
2022-12-08T11:22:43.711Z,100068.13
2022-12-08T11:23:47.950Z,100072.02
2022-12-08T11:24:52.208Z,100069.37
2022-12-08T11:25:56.427Z,100070.53
2022-12-08T11:27:00.668Z,100067.88
2022-12-08T11:28:04.924Z,100070.23
2022-12-08T11:29:09.118Z,100072.25
2022-12-08T11:30:16.083Z,100072.37
2022-12-08T11:31:21.315Z,100082.51
2022-12-08T11:32:25.702Z,100078.48
2022-12-08T11:33:29.922Z,100075.56
2022-12-08T11:34:34.129Z,100086.96
2022-12-08T11:35:38.624Z,100085.29
2022-12-08T11:36:42.883Z,100075.66
2022-12-08T11:37:47.181Z,100076.67
2022-12-08T11:38:51.902Z,100077.87
2022-12-08T11:39:56.105Z,100077.63
2022-12-08T11:41:00.430Z,100076.22
2022-12-08T11:42:04.676Z,100080.44
2022-12-08T11:43:08.913Z,100082.86
2022-12-08T11:44:13.147Z,100081.68
2022-12-08T11:45:17.359Z,100082.8
2022-12-08T11:46:21.814Z,100080.28
2022-12-08T11:47:26.177Z,100078.61
2022-12-08T11:48:30.408Z,100076.2
2022-12-08T11:49:34.631Z,100078.63
2022-12-08T11:50:38.868Z,100084.99
2022-12-08T11:51:43.121Z,100071.87
2022-12-08T11:52:47.511Z,100074.95
2022-12-08T11:53:51.751Z,100072.95
2022-12-08T11:54:55.970Z,100069.95
2022-12-08T11:56:02.564Z,100067.05
2022-12-08T11:57:06.822Z,100068.05
2022-12-08T11:58:11.151Z,100064.03
2022-12-08T11:59:15.463Z,100066.8
2022-12-08T12:00:19.703Z,100060.7
2022-12-08T12:01:23.938Z,100064.95
2022-12-08T12:02:28.338Z,100060.45
2022-12-08T12:03:35.363Z,100066.29
2022-12-08T12:04:39.788Z,100058.59
2022-12-08T12:06:30.740Z,100058.94
2022-12-08T12:07:58.047Z,100056.02
2022-12-08T12:09:02.440Z,100055.91
2022-12-08T12:10:07.413Z,100063.44
2022-12-08T12:11:11.969Z,100052.44
2022-12-08T12:12:16.245Z,100048.7
2022-12-08T12:13:20.500Z,100048.8
2022-12-08T12:14:24.708Z,100047.94
2022-12-08T12:15:28.943Z,100044.16
2022-12-08T12:16:33.316Z,100047.23
2022-12-08T12:17:37.724Z,100050.1
2022-12-08T12:18:41.931Z,100047.31
2022-12-08T12:19:46.144Z,100045.89
2022-12-08T12:20:50.389Z,100043.42
2022-12-08T12:21:54.858Z,100049.45
2022-12-08T12:22:59.085Z,100047.53